sensor_id;sensor_type;location;lat;lon;timestamp;P1;durP1;ratioP1;P2;durP2;ratioP2
9854;SDS011;4966;48.112;9.282;2024-02-28T00:02:00;23.42;;;10.02;;
9854;SDS011;4966;48.112;9.282;2024-02-28T00:04:25;25.77;;;10.90;;
9854;SDS011;4966;48.112;9.282;2024-02-28T00:06:50;28.80;;;11.02;;
9854;SDS011;4966;48.112;9.282;2024-02-28T00:09:16;28.90;;;10.88;;
9854;SDS011;4966;48.112;9.282;2024-02-28T00:11:44;28.67;;;10.65;;
9854;SDS011;4966;48.112;9.282;2024-02-28T00:14:14;23.80;;;10.07;;
9854;SDS011;4966;48.112;9.282;2024-02-28T00:16:40;30.08;;;11.18;;
9854;SDS011;4966;48.112;9.282;2024-02-28T00:19:07;26.45;;;10.25;;
9854;SDS011;4966;48.112;9.282;2024-02-28T00:21:33;26.48;;;11.15;;
9854;SDS011;4966;48.112;9.282;2024-02-28T00:23:58;26.77;;;10.65;;
9854;SDS011;4966;48.112;9.282;2024-02-28T00:26:24;29.92;;;10.63;;
9854;SDS011;4966;48.112;9.282;2024-02-28T00:28:50;25.83;;;10.27;;
9854;SDS011;4966;48.112;9.282;2024-02-28T00:31:15;29.98;;;10.73;;
9854;SDS011;4966;48.112;9.282;2024-02-28T00:33:41;25.30;;;10.35;;
9854;SDS011;4966;48.112;9.282;2024-02-28T00:36:06;25.75;;;10.40;;
9854;SDS011;4966;48.112;9.282;2024-02-28T00:38:32;26.75;;;10.50;;
9854;SDS011;4966;48.112;9.282;2024-02-28T00:40:57;26.52;;;10.68;;
9854;SDS011;4966;48.112;9.282;2024-02-28T00:43:23;28.10;;;10.15;;
9854;SDS011;4966;48.112;9.282;2024-02-28T00:45:49;29.10;;;11.15;;
9854;SDS011;4966;48.112;9.282;2024-02-28T00:48:14;26.02;;;10.35;;
9854;SDS011;4966;48.112;9.282;2024-02-28T00:50:39;25.30;;;10.95;;
9854;SDS011;4966;48.112;9.282;2024-02-28T00:53:05;21.35;;;9.32;;
9854;SDS011;4966;48.112;9.282;2024-02-28T00:55:31;23.42;;;9.18;;
9854;SDS011;4966;48.112;9.282;2024-02-28T00:57:56;24.30;;;9.77;;
9854;SDS011;4966;48.112;9.282;2024-02-28T01:00:21;24.27;;;9.55;;
9854;SDS011;4966;48.112;9.282;2024-02-28T01:02:47;25.20;;;9.60;;
9854;SDS011;4966;48.112;9.282;2024-02-28T01:05:12;19.95;;;7.65;;
9854;SDS011;4966;48.112;9.282;2024-02-28T01:07:38;22.52;;;9.23;;
9854;SDS011;4966;48.112;9.282;2024-02-28T01:10:04;23.45;;;9.48;;
9854;SDS011;4966;48.112;9.282;2024-02-28T01:12:29;22.80;;;9.30;;
9854;SDS011;4966;48.112;9.282;2024-02-28T01:14:55;18.98;;;8.43;;
9854;SDS011;4966;48.112;9.282;2024-02-28T01:17:20;24.15;;;9.60;;
9854;SDS011;4966;48.112;9.282;2024-02-28T01:19:46;25.42;;;9.35;;
9854;SDS011;4966;48.112;9.282;2024-02-28T01:22:12;22.15;;;9.45;;
9854;SDS011;4966;48.112;9.282;2024-02-28T01:24:37;21.25;;;8.50;;
9854;SDS011;4966;48.112;9.282;2024-02-28T01:27:03;21.08;;;9.20;;
9854;SDS011;4966;48.112;9.282;2024-02-28T01:29:28;22.25;;;8.95;;
9854;SDS011;4966;48.112;9.282;2024-02-28T01:31:54;23.40;;;10.02;;
9854;SDS011;4966;48.112;9.282;2024-02-28T01:34:20;20.20;;;8.65;;
9854;SDS011;4966;48.112;9.282;2024-02-28T01:36:46;23.67;;;9.27;;
9854;SDS011;4966;48.112;9.282;2024-02-28T01:39:11;23.05;;;9.20;;
9854;SDS011;4966;48.112;9.282;2024-02-28T01:41:36;24.40;;;9.73;;
9854;SDS011;4966;48.112;9.282;2024-02-28T01:44:02;22.65;;;9.45;;
9854;SDS011;4966;48.112;9.282;2024-02-28T01:46:28;23.75;;;9.40;;
9854;SDS011;4966;48.112;9.282;2024-02-28T01:48:54;24.13;;;9.77;;
9854;SDS011;4966;48.112;9.282;2024-02-28T01:51:24;20.38;;;9.10;;
9854;SDS011;4966;48.112;9.282;2024-02-28T01:53:52;25.08;;;9.65;;
9854;SDS011;4966;48.112;9.282;2024-02-28T01:56:20;22.08;;;8.90;;
9854;SDS011;4966;48.112;9.282;2024-02-28T01:58:48;23.42;;;9.43;;
9854;SDS011;4966;48.112;9.282;2024-02-28T02:01:15;21.95;;;9.15;;
9854;SDS011;4966;48.112;9.282;2024-02-28T02:03:42;22.05;;;9.82;;
9854;SDS011;4966;48.112;9.282;2024-02-28T02:06:08;21.85;;;9.43;;
9854;SDS011;4966;48.112;9.282;2024-02-28T02:08:34;23.48;;;9.50;;
9854;SDS011;4966;48.112;9.282;2024-02-28T02:11:00;24.23;;;9.63;;
9854;SDS011;4966;48.112;9.282;2024-02-28T02:13:26;20.52;;;9.52;;
9854;SDS011;4966;48.112;9.282;2024-02-28T02:15:51;24.92;;;10.35;;
9854;SDS011;4966;48.112;9.282;2024-02-28T02:18:17;22.98;;;8.77;;
9854;SDS011;4966;48.112;9.282;2024-02-28T02:20:44;22.55;;;9.52;;
9854;SDS011;4966;48.112;9.282;2024-02-28T02:23:14;22.55;;;8.90;;
9854;SDS011;4966;48.112;9.282;2024-02-28T02:25:46;23.48;;;9.73;;
9854;SDS011;4966;48.112;9.282;2024-02-28T02:28:12;22.70;;;9.35;;
9854;SDS011;4966;48.112;9.282;2024-02-28T02:30:38;20.30;;;9.18;;
9854;SDS011;4966;48.112;9.282;2024-02-28T02:33:04;22.17;;;9.30;;
9854;SDS011;4966;48.112;9.282;2024-02-28T02:35:30;21.27;;;8.25;;
9854;SDS011;4966;48.112;9.282;2024-02-28T02:37:56;19.98;;;9.20;;
9854;SDS011;4966;48.112;9.282;2024-02-28T02:40:21;24.27;;;11.18;;
9854;SDS011;4966;48.112;9.282;2024-02-28T02:42:47;22.00;;;8.98;;
9854;SDS011;4966;48.112;9.282;2024-02-28T02:45:12;24.92;;;9.80;;
9854;SDS011;4966;48.112;9.282;2024-02-28T02:47:38;25.95;;;9.95;;
9854;SDS011;4966;48.112;9.282;2024-02-28T02:50:03;26.67;;;9.35;;
9854;SDS011;4966;48.112;9.282;2024-02-28T02:52:29;23.38;;;9.23;;
9854;SDS011;4966;48.112;9.282;2024-02-28T02:54:54;24.35;;;9.25;;
9854;SDS011;4966;48.112;9.282;2024-02-28T02:57:20;23.08;;;9.07;;
9854;SDS011;4966;48.112;9.282;2024-02-28T02:59:45;24.08;;;10.05;;
9854;SDS011;4966;48.112;9.282;2024-02-28T03:02:11;23.08;;;8.93;;
9854;SDS011;4966;48.112;9.282;2024-02-28T03:04:36;25.50;;;9.38;;
9854;SDS011;4966;48.112;9.282;2024-02-28T03:07:02;23.42;;;8.75;;
9854;SDS011;4966;48.112;9.282;2024-02-28T03:09:27;20.50;;;8.90;;
9854;SDS011;4966;48.112;9.282;2024-02-28T03:11:53;21.20;;;8.93;;
9854;SDS011;4966;48.112;9.282;2024-02-28T03:14:18;23.17;;;9.13;;
9854;SDS011;4966;48.112;9.282;2024-02-28T03:16:45;22.73;;;8.55;;
9854;SDS011;4966;48.112;9.282;2024-02-28T03:19:12;23.15;;;8.40;;
9854;SDS011;4966;48.112;9.282;2024-02-28T03:21:38;20.35;;;8.18;;
9854;SDS011;4966;48.112;9.282;2024-02-28T03:24:03;22.15;;;9.13;;
9854;SDS011;4966;48.112;9.282;2024-02-28T03:26:29;24.95;;;9.45;;
9854;SDS011;4966;48.112;9.282;2024-02-28T03:28:54;21.58;;;8.95;;
9854;SDS011;4966;48.112;9.282;2024-02-28T03:31:20;20.83;;;9.00;;
9854;SDS011;4966;48.112;9.282;2024-02-28T03:33:46;20.42;;;8.38;;
9854;SDS011;4966;48.112;9.282;2024-02-28T03:36:12;22.55;;;8.85;;
9854;SDS011;4966;48.112;9.282;2024-02-28T03:38:37;23.85;;;8.60;;
9854;SDS011;4966;48.112;9.282;2024-02-28T03:41:03;22.45;;;8.85;;
9854;SDS011;4966;48.112;9.282;2024-02-28T03:43:30;28.13;;;9.82;;
9854;SDS011;4966;48.112;9.282;2024-02-28T03:45:56;20.83;;;8.38;;
9854;SDS011;4966;48.112;9.282;2024-02-28T03:48:24;24.20;;;9.27;;
9854;SDS011;4966;48.112;9.282;2024-02-28T03:50:50;23.75;;;8.65;;
9854;SDS011;4966;48.112;9.282;2024-02-28T03:53:15;25.13;;;9.30;;
9854;SDS011;4966;48.112;9.282;2024-02-28T03:55:41;24.23;;;8.68;;
9854;SDS011;4966;48.112;9.282;2024-02-28T03:58:09;22.45;;;9.57;;
9854;SDS011;4966;48.112;9.282;2024-02-28T04:00:34;21.88;;;9.13;;
9854;SDS011;4966;48.112;9.282;2024-02-28T04:03:00;23.50;;;9.05;;
9854;SDS011;4966;48.112;9.282;2024-02-28T04:05:26;19.20;;;7.82;;
9854;SDS011;4966;48.112;9.282;2024-02-28T04:07:51;21.25;;;8.38;;
9854;SDS011;4966;48.112;9.282;2024-02-28T04:10:17;20.67;;;8.77;;
9854;SDS011;4966;48.112;9.282;2024-02-28T04:12:43;23.27;;;8.57;;
9854;SDS011;4966;48.112;9.282;2024-02-28T04:15:12;25.42;;;8.82;;
9854;SDS011;4966;48.112;9.282;2024-02-28T04:17:38;24.48;;;10.18;;
9854;SDS011;4966;48.112;9.282;2024-02-28T04:20:10;21.45;;;8.85;;
9854;SDS011;4966;48.112;9.282;2024-02-28T04:22:37;22.42;;;8.38;;
9854;SDS011;4966;48.112;9.282;2024-02-28T04:25:05;20.40;;;8.90;;
9854;SDS011;4966;48.112;9.282;2024-02-28T04:27:32;26.25;;;9.35;;
9854;SDS011;4966;48.112;9.282;2024-02-28T04:29:58;30.85;;;10.77;;
9854;SDS011;4966;48.112;9.282;2024-02-28T04:32:23;24.70;;;10.43;;
9854;SDS011;4966;48.112;9.282;2024-02-28T04:34:49;25.98;;;10.73;;
9854;SDS011;4966;48.112;9.282;2024-02-28T04:37:14;27.15;;;10.73;;
9854;SDS011;4966;48.112;9.282;2024-02-28T04:39:40;24.40;;;10.10;;
9854;SDS011;4966;48.112;9.282;2024-02-28T04:42:05;27.58;;;10.23;;
9854;SDS011;4966;48.112;9.282;2024-02-28T04:44:31;22.88;;;9.65;;
9854;SDS011;4966;48.112;9.282;2024-02-28T04:46:56;24.95;;;9.55;;
9854;SDS011;4966;48.112;9.282;2024-02-28T04:49:22;24.38;;;10.23;;
9854;SDS011;4966;48.112;9.282;2024-02-28T04:51:48;21.10;;;7.97;;
9854;SDS011;4966;48.112;9.282;2024-02-28T04:54:13;26.30;;;10.02;;
9854;SDS011;4966;48.112;9.282;2024-02-28T04:56:42;24.67;;;8.50;;
9854;SDS011;4966;48.112;9.282;2024-02-28T04:59:11;25.35;;;10.32;;
9854;SDS011;4966;48.112;9.282;2024-02-28T05:01:37;24.88;;;10.13;;
9854;SDS011;4966;48.112;9.282;2024-02-28T05:04:05;24.10;;;9.20;;
9854;SDS011;4966;48.112;9.282;2024-02-28T05:06:31;30.55;;;10.30;;
9854;SDS011;4966;48.112;9.282;2024-02-28T05:08:59;26.42;;;10.95;;
9854;SDS011;4966;48.112;9.282;2024-02-28T05:11:25;23.80;;;9.55;;
9854;SDS011;4966;48.112;9.282;2024-02-28T05:13:50;23.75;;;9.95;;
9854;SDS011;4966;48.112;9.282;2024-02-28T05:16:21;24.88;;;10.25;;
9854;SDS011;4966;48.112;9.282;2024-02-28T05:18:54;26.60;;;9.15;;
9854;SDS011;4966;48.112;9.282;2024-02-28T05:21:20;24.02;;;9.07;;
9854;SDS011;4966;48.112;9.282;2024-02-28T05:23:51;25.83;;;9.32;;
9854;SDS011;4966;48.112;9.282;2024-02-28T05:26:16;28.38;;;11.15;;
9854;SDS011;4966;48.112;9.282;2024-02-28T05:28:42;28.60;;;11.23;;
9854;SDS011;4966;48.112;9.282;2024-02-28T05:31:24;24.08;;;9.30;;
9854;SDS011;4966;48.112;9.282;2024-02-28T05:33:51;26.70;;;9.13;;
9854;SDS011;4966;48.112;9.282;2024-02-28T05:36:17;23.40;;;9.48;;
9854;SDS011;4966;48.112;9.282;2024-02-28T05:38:43;25.42;;;9.00;;
9854;SDS011;4966;48.112;9.282;2024-02-28T05:41:09;29.08;;;9.27;;
9854;SDS011;4966;48.112;9.282;2024-02-28T05:43:36;27.98;;;9.70;;
9854;SDS011;4966;48.112;9.282;2024-02-28T05:46:03;24.35;;;9.68;;
9854;SDS011;4966;48.112;9.282;2024-02-28T05:48:28;28.08;;;10.57;;
9854;SDS011;4966;48.112;9.282;2024-02-28T05:50:54;25.23;;;9.13;;
9854;SDS011;4966;48.112;9.282;2024-02-28T05:53:19;35.13;;;11.55;;
9854;SDS011;4966;48.112;9.282;2024-02-28T05:55:45;22.38;;;9.30;;
9854;SDS011;4966;48.112;9.282;2024-02-28T05:58:10;24.70;;;9.52;;
9854;SDS011;4966;48.112;9.282;2024-02-28T06:00:36;24.83;;;10.35;;
9854;SDS011;4966;48.112;9.282;2024-02-28T06:03:02;43.75;;;14.73;;
9854;SDS011;4966;48.112;9.282;2024-02-28T06:05:28;54.03;;;19.50;;
9854;SDS011;4966;48.112;9.282;2024-02-28T06:07:53;48.58;;;16.85;;
9854;SDS011;4966;48.112;9.282;2024-02-28T06:10:19;41.63;;;14.73;;
9854;SDS011;4966;48.112;9.282;2024-02-28T06:12:46;34.58;;;14.23;;
9854;SDS011;4966;48.112;9.282;2024-02-28T06:15:11;45.20;;;16.48;;
9854;SDS011;4966;48.112;9.282;2024-02-28T06:17:36;41.03;;;16.02;;
9854;SDS011;4966;48.112;9.282;2024-02-28T06:20:02;35.53;;;14.23;;
9854;SDS011;4966;48.112;9.282;2024-02-28T06:22:27;39.47;;;14.38;;
9854;SDS011;4966;48.112;9.282;2024-02-28T06:24:53;36.05;;;14.50;;
9854;SDS011;4966;48.112;9.282;2024-02-28T06:27:18;32.85;;;13.90;;
9854;SDS011;4966;48.112;9.282;2024-02-28T06:29:44;37.10;;;15.30;;
9854;SDS011;4966;48.112;9.282;2024-02-28T06:32:09;31.65;;;12.40;;
9854;SDS011;4966;48.112;9.282;2024-02-28T06:34:35;31.35;;;14.27;;
9854;SDS011;4966;48.112;9.282;2024-02-28T06:37:00;33.15;;;12.13;;
9854;SDS011;4966;48.112;9.282;2024-02-28T06:39:25;26.65;;;12.57;;
9854;SDS011;4966;48.112;9.282;2024-02-28T06:41:51;27.48;;;11.40;;
9854;SDS011;4966;48.112;9.282;2024-02-28T06:44:20;26.83;;;11.40;;
9854;SDS011;4966;48.112;9.282;2024-02-28T06:46:45;27.00;;;10.55;;
9854;SDS011;4966;48.112;9.282;2024-02-28T06:49:11;32.33;;;14.73;;
9854;SDS011;4966;48.112;9.282;2024-02-28T06:51:36;30.65;;;13.13;;
9854;SDS011;4966;48.112;9.282;2024-02-28T06:54:02;32.83;;;13.73;;
9854;SDS011;4966;48.112;9.282;2024-02-28T06:56:28;31.67;;;12.63;;
9854;SDS011;4966;48.112;9.282;2024-02-28T06:58:55;32.35;;;13.00;;
9854;SDS011;4966;48.112;9.282;2024-02-28T07:01:20;25.88;;;10.90;;
9854;SDS011;4966;48.112;9.282;2024-02-28T07:03:46;32.55;;;13.48;;
9854;SDS011;4966;48.112;9.282;2024-02-28T07:06:11;32.78;;;12.38;;
9854;SDS011;4966;48.112;9.282;2024-02-28T07:08:58;36.75;;;14.32;;
9854;SDS011;4966;48.112;9.282;2024-02-28T07:11:26;32.83;;;13.88;;
9854;SDS011;4966;48.112;9.282;2024-02-28T07:13:57;30.60;;;12.75;;
9854;SDS011;4966;48.112;9.282;2024-02-28T07:16:27;27.23;;;11.77;;
9854;SDS011;4966;48.112;9.282;2024-02-28T07:19:12;27.95;;;11.85;;
9854;SDS011;4966;48.112;9.282;2024-02-28T07:22:00;26.67;;;11.40;;
9854;SDS011;4966;48.112;9.282;2024-02-28T07:24:30;31.88;;;11.82;;
9854;SDS011;4966;48.112;9.282;2024-02-28T07:27:02;28.77;;;11.77;;
9854;SDS011;4966;48.112;9.282;2024-02-28T07:29:49;30.85;;;11.65;;
9854;SDS011;4966;48.112;9.282;2024-02-28T07:32:14;25.55;;;10.68;;
9854;SDS011;4966;48.112;9.282;2024-02-28T07:34:40;27.90;;;11.40;;
9854;SDS011;4966;48.112;9.282;2024-02-28T07:37:05;33.72;;;14.13;;
9854;SDS011;4966;48.112;9.282;2024-02-28T07:39:31;59.90;;;22.02;;
9854;SDS011;4966;48.112;9.282;2024-02-28T07:41:56;43.75;;;17.60;;
9854;SDS011;4966;48.112;9.282;2024-02-28T07:44:21;26.00;;;11.02;;
9854;SDS011;4966;48.112;9.282;2024-02-28T07:46:47;26.38;;;11.35;;
9854;SDS011;4966;48.112;9.282;2024-02-28T07:49:15;24.08;;;10.18;;
9854;SDS011;4966;48.112;9.282;2024-02-28T07:51:41;30.98;;;11.80;;
9854;SDS011;4966;48.112;9.282;2024-02-28T07:54:06;31.33;;;13.73;;
9854;SDS011;4966;48.112;9.282;2024-02-28T07:56:32;26.13;;;10.57;;
9854;SDS011;4966;48.112;9.282;2024-02-28T07:58:57;26.63;;;10.82;;
9854;SDS011;4966;48.112;9.282;2024-02-28T08:01:23;26.17;;;10.52;;
9854;SDS011;4966;48.112;9.282;2024-02-28T08:03:48;22.98;;;9.52;;
9854;SDS011;4966;48.112;9.282;2024-02-28T08:06:14;25.10;;;8.63;;
9854;SDS011;4966;48.112;9.282;2024-02-28T08:08:46;23.88;;;9.52;;
9854;SDS011;4966;48.112;9.282;2024-02-28T08:11:21;23.95;;;10.73;;
9854;SDS011;4966;48.112;9.282;2024-02-28T08:13:53;34.00;;;14.18;;
9854;SDS011;4966;48.112;9.282;2024-02-28T08:16:18;34.40;;;14.77;;
9854;SDS011;4966;48.112;9.282;2024-02-28T08:18:49;37.78;;;16.05;;
9854;SDS011;4966;48.112;9.282;2024-02-28T08:21:26;37.90;;;15.73;;
9854;SDS011;4966;48.112;9.282;2024-02-28T08:23:57;39.50;;;15.52;;
9854;SDS011;4966;48.112;9.282;2024-02-28T08:26:35;33.15;;;14.50;;
9854;SDS011;4966;48.112;9.282;2024-02-28T08:29:10;33.55;;;14.55;;
9854;SDS011;4966;48.112;9.282;2024-02-28T08:31:39;35.55;;;14.98;;
9854;SDS011;4966;48.112;9.282;2024-02-28T08:34:07;29.33;;;12.77;;
9854;SDS011;4966;48.112;9.282;2024-02-28T08:36:46;26.90;;;11.50;;
9854;SDS011;4966;48.112;9.282;2024-02-28T08:39:27;27.02;;;11.35;;
9854;SDS011;4966;48.112;9.282;2024-02-28T08:42:05;29.02;;;12.40;;
9854;SDS011;4966;48.112;9.282;2024-02-28T08:44:33;28.25;;;12.85;;
9854;SDS011;4966;48.112;9.282;2024-02-28T08:48:08;27.88;;;12.63;;
9854;SDS011;4966;48.112;9.282;2024-02-28T08:50:31;32.63;;;12.68;;
9854;SDS011;4966;48.112;9.282;2024-02-28T08:53:08;26.35;;;11.55;;
9854;SDS011;4966;48.112;9.282;2024-02-28T08:55:58;30.48;;;12.77;;
9854;SDS011;4966;48.112;9.282;2024-02-28T08:58:24;27.05;;;9.52;;
9854;SDS011;4966;48.112;9.282;2024-02-28T09:00:49;25.95;;;10.30;;
9854;SDS011;4966;48.112;9.282;2024-02-28T09:03:14;24.23;;;9.85;;
9854;SDS011;4966;48.112;9.282;2024-02-28T09:05:40;26.52;;;10.35;;
9854;SDS011;4966;48.112;9.282;2024-02-28T09:08:06;27.63;;;10.43;;
9854;SDS011;4966;48.112;9.282;2024-02-28T09:10:31;26.60;;;9.35;;
9854;SDS011;4966;48.112;9.282;2024-02-28T09:12:59;24.85;;;9.68;;
9854;SDS011;4966;48.112;9.282;2024-02-28T09:15:25;23.48;;;8.75;;
9854;SDS011;4966;48.112;9.282;2024-02-28T09:17:51;22.40;;;8.88;;
9854;SDS011;4966;48.112;9.282;2024-02-28T09:20:17;22.08;;;8.77;;
9854;SDS011;4966;48.112;9.282;2024-02-28T09:22:42;25.52;;;9.95;;
9854;SDS011;4966;48.112;9.282;2024-02-28T09:25:08;25.02;;;9.88;;
9854;SDS011;4966;48.112;9.282;2024-02-28T09:27:37;28.95;;;9.05;;
9854;SDS011;4966;48.112;9.282;2024-02-28T09:30:02;23.92;;;9.57;;
9854;SDS011;4966;48.112;9.282;2024-02-28T09:32:28;23.63;;;9.32;;
9854;SDS011;4966;48.112;9.282;2024-02-28T09:34:54;22.77;;;9.10;;
9854;SDS011;4966;48.112;9.282;2024-02-28T09:37:19;19.65;;;7.80;;
9854;SDS011;4966;48.112;9.282;2024-02-28T09:39:49;23.23;;;9.73;;
9854;SDS011;4966;48.112;9.282;2024-02-28T09:42:15;20.58;;;9.23;;
9854;SDS011;4966;48.112;9.282;2024-02-28T09:44:40;22.75;;;8.93;;
9854;SDS011;4966;48.112;9.282;2024-02-28T09:47:07;25.50;;;9.30;;
9854;SDS011;4966;48.112;9.282;2024-02-28T09:49:33;21.50;;;8.80;;
9854;SDS011;4966;48.112;9.282;2024-02-28T09:52:02;22.88;;;9.23;;
9854;SDS011;4966;48.112;9.282;2024-02-28T09:54:28;20.95;;;9.77;;
9854;SDS011;4966;48.112;9.282;2024-02-28T09:56:54;22.25;;;9.13;;
9854;SDS011;4966;48.112;9.282;2024-02-28T09:59:20;26.52;;;9.73;;
9854;SDS011;4966;48.112;9.282;2024-02-28T10:01:52;21.65;;;8.50;;
9854;SDS011;4966;48.112;9.282;2024-02-28T10:04:21;21.80;;;8.75;;
9854;SDS011;4966;48.112;9.282;2024-02-28T10:06:48;18.35;;;7.95;;
9854;SDS011;4966;48.112;9.282;2024-02-28T10:09:15;21.33;;;9.52;;
9854;SDS011;4966;48.112;9.282;2024-02-28T10:12:02;21.88;;;9.65;;
9854;SDS011;4966;48.112;9.282;2024-02-28T10:14:33;21.70;;;9.75;;
9854;SDS011;4966;48.112;9.282;2024-02-28T10:17:09;20.80;;;8.23;;
9854;SDS011;4966;48.112;9.282;2024-02-28T10:19:38;19.33;;;8.68;;
9854;SDS011;4966;48.112;9.282;2024-02-28T10:22:16;21.88;;;9.88;;
9854;SDS011;4966;48.112;9.282;2024-02-28T10:24:45;19.02;;;8.60;;
9854;SDS011;4966;48.112;9.282;2024-02-28T10:27:15;20.23;;;7.90;;
9854;SDS011;4966;48.112;9.282;2024-02-28T10:30:03;23.35;;;10.45;;
9854;SDS011;4966;48.112;9.282;2024-02-28T10:32:36;24.60;;;11.48;;
9854;SDS011;4966;48.112;9.282;2024-02-28T10:35:02;20.92;;;9.10;;
9854;SDS011;4966;48.112;9.282;2024-02-28T10:37:28;21.63;;;9.85;;
9854;SDS011;4966;48.112;9.282;2024-02-28T10:39:57;21.85;;;9.93;;
9854;SDS011;4966;48.112;9.282;2024-02-28T10:42:25;18.70;;;8.52;;
9854;SDS011;4966;48.112;9.282;2024-02-28T10:44:52;20.85;;;8.73;;
9854;SDS011;4966;48.112;9.282;2024-02-28T10:47:20;25.95;;;10.68;;
9854;SDS011;4966;48.112;9.282;2024-02-28T10:49:45;20.20;;;9.48;;
9854;SDS011;4966;48.112;9.282;2024-02-28T10:52:11;25.75;;;13.70;;
9854;SDS011;4966;48.112;9.282;2024-02-28T10:57:07;19.75;;;9.23;;
9854;SDS011;4966;48.112;9.282;2024-02-28T10:59:34;17.10;;;8.68;;
9854;SDS011;4966;48.112;9.282;2024-02-28T11:02:02;21.67;;;8.73;;
9854;SDS011;4966;48.112;9.282;2024-02-28T11:04:28;20.98;;;9.15;;
9854;SDS011;4966;48.112;9.282;2024-02-28T11:06:55;18.95;;;8.20;;
9854;SDS011;4966;48.112;9.282;2024-02-28T11:09:22;19.23;;;8.68;;
9854;SDS011;4966;48.112;9.282;2024-02-28T11:11:54;18.40;;;8.05;;
9854;SDS011;4966;48.112;9.282;2024-02-28T11:17:46;16.75;;;8.38;;
9854;SDS011;4966;48.112;9.282;2024-02-28T11:20:33;19.80;;;8.90;;
9854;SDS011;4966;48.112;9.282;2024-02-28T11:23:09;20.95;;;8.02;;
9854;SDS011;4966;48.112;9.282;2024-02-28T11:25:41;15.80;;;7.13;;
9854;SDS011;4966;48.112;9.282;2024-02-28T11:28:25;19.95;;;8.43;;
9854;SDS011;4966;48.112;9.282;2024-02-28T11:31:06;16.85;;;8.02;;
9854;SDS011;4966;48.112;9.282;2024-02-28T11:33:47;16.95;;;7.70;;
9854;SDS011;4966;48.112;9.282;2024-02-28T11:36:16;18.45;;;8.77;;
9854;SDS011;4966;48.112;9.282;2024-02-28T11:38:54;19.92;;;8.10;;
9854;SDS011;4966;48.112;9.282;2024-02-28T11:41:52;18.60;;;8.02;;
9854;SDS011;4966;48.112;9.282;2024-02-28T11:44:18;19.15;;;8.50;;
9854;SDS011;4966;48.112;9.282;2024-02-28T11:46:45;14.57;;;6.18;;
9854;SDS011;4966;48.112;9.282;2024-02-28T11:49:12;18.30;;;7.68;;
9854;SDS011;4966;48.112;9.282;2024-02-28T11:51:39;14.50;;;5.97;;
9854;SDS011;4966;48.112;9.282;2024-02-28T11:54:08;18.73;;;6.85;;
9854;SDS011;4966;48.112;9.282;2024-02-28T11:56:37;15.30;;;6.85;;
9854;SDS011;4966;48.112;9.282;2024-02-28T11:59:03;15.23;;;6.43;;
9854;SDS011;4966;48.112;9.282;2024-02-28T12:04:03;14.00;;;5.68;;
9854;SDS011;4966;48.112;9.282;2024-02-28T12:06:30;12.82;;;5.90;;
9854;SDS011;4966;48.112;9.282;2024-02-28T12:08:56;10.90;;;5.13;;
9854;SDS011;4966;48.112;9.282;2024-02-28T12:11:24;12.90;;;6.00;;
9854;SDS011;4966;48.112;9.282;2024-02-28T12:13:59;12.07;;;5.25;;
9854;SDS011;4966;48.112;9.282;2024-02-28T12:16:34;11.00;;;5.18;;
9854;SDS011;4966;48.112;9.282;2024-02-28T12:19:18;12.00;;;4.90;;
9854;SDS011;4966;48.112;9.282;2024-02-28T12:22:07;10.45;;;4.82;;
9854;SDS011;4966;48.112;9.282;2024-02-28T12:24:50;10.15;;;4.63;;
9854;SDS011;4966;48.112;9.282;2024-02-28T12:27:29;12.10;;;5.57;;
9854;SDS011;4966;48.112;9.282;2024-02-28T12:30:07;10.30;;;4.90;;
9854;SDS011;4966;48.112;9.282;2024-02-28T12:32:59;12.82;;;5.47;;
9854;SDS011;4966;48.112;9.282;2024-02-28T12:35:46;13.05;;;6.15;;
9854;SDS011;4966;48.112;9.282;2024-02-28T12:38:32;9.93;;;5.72;;
9854;SDS011;4966;48.112;9.282;2024-02-28T12:40:58;10.98;;;4.47;;
9854;SDS011;4966;48.112;9.282;2024-02-28T12:43:24;9.05;;;4.10;;
9854;SDS011;4966;48.112;9.282;2024-02-28T12:45:52;10.00;;;4.88;;
9854;SDS011;4966;48.112;9.282;2024-02-28T12:48:20;10.43;;;4.30;;
9854;SDS011;4966;48.112;9.282;2024-02-28T12:50:46;9.45;;;4.80;;
9854;SDS011;4966;48.112;9.282;2024-02-28T12:53:12;12.40;;;5.05;;
9854;SDS011;4966;48.112;9.282;2024-02-28T12:55:37;10.80;;;5.15;;
9854;SDS011;4966;48.112;9.282;2024-02-28T12:58:03;9.98;;;4.88;;
9854;SDS011;4966;48.112;9.282;2024-02-28T13:00:31;14.07;;;5.93;;
9854;SDS011;4966;48.112;9.282;2024-02-28T13:02:57;13.05;;;5.93;;
9854;SDS011;4966;48.112;9.282;2024-02-28T13:05:22;11.75;;;5.32;;
9854;SDS011;4966;48.112;9.282;2024-02-28T13:07:48;14.88;;;5.85;;
9854;SDS011;4966;48.112;9.282;2024-02-28T13:10:13;11.73;;;5.57;;
9854;SDS011;4966;48.112;9.282;2024-02-28T13:12:39;16.23;;;5.68;;
9854;SDS011;4966;48.112;9.282;2024-02-28T13:15:05;11.75;;;5.35;;
9854;SDS011;4966;48.112;9.282;2024-02-28T13:17:31;13.02;;;5.38;;
9854;SDS011;4966;48.112;9.282;2024-02-28T13:19:57;9.68;;;4.95;;
9854;SDS011;4966;48.112;9.282;2024-02-28T13:22:22;12.38;;;5.80;;
9854;SDS011;4966;48.112;9.282;2024-02-28T13:24:47;9.82;;;4.72;;
9854;SDS011;4966;48.112;9.282;2024-02-28T13:27:13;10.27;;;4.88;;
9854;SDS011;4966;48.112;9.282;2024-02-28T13:29:38;10.52;;;5.30;;
9854;SDS011;4966;48.112;9.282;2024-02-28T13:32:04;12.82;;;5.80;;
9854;SDS011;4966;48.112;9.282;2024-02-28T13:34:29;10.73;;;5.25;;
9854;SDS011;4966;48.112;9.282;2024-02-28T13:36:55;11.60;;;5.38;;
9854;SDS011;4966;48.112;9.282;2024-02-28T13:39:21;10.60;;;5.22;;
9854;SDS011;4966;48.112;9.282;2024-02-28T13:41:48;11.82;;;4.65;;
9854;SDS011;4966;48.112;9.282;2024-02-28T13:46:44;9.13;;;4.72;;
9854;SDS011;4966;48.112;9.282;2024-02-28T13:49:10;11.13;;;6.00;;
9854;SDS011;4966;48.112;9.282;2024-02-28T13:51:35;14.45;;;5.30;;
9854;SDS011;4966;48.112;9.282;2024-02-28T13:54:04;13.13;;;5.30;;
9854;SDS011;4966;48.112;9.282;2024-02-28T13:56:30;12.35;;;5.13;;
9854;SDS011;4966;48.112;9.282;2024-02-28T13:58:56;10.95;;;5.28;;
9854;SDS011;4966;48.112;9.282;2024-02-28T14:01:22;12.70;;;5.53;;
9854;SDS011;4966;48.112;9.282;2024-02-28T14:03:48;11.70;;;5.88;;
9854;SDS011;4966;48.112;9.282;2024-02-28T14:06:13;10.60;;;5.97;;
9854;SDS011;4966;48.112;9.282;2024-02-28T14:08:39;12.52;;;5.78;;
9854;SDS011;4966;48.112;9.282;2024-02-28T14:11:05;14.20;;;6.00;;
9854;SDS011;4966;48.112;9.282;2024-02-28T14:13:30;11.30;;;5.63;;
9854;SDS011;4966;48.112;9.282;2024-02-28T14:15:56;10.98;;;5.35;;
9854;SDS011;4966;48.112;9.282;2024-02-28T14:18:21;14.50;;;6.15;;
9854;SDS011;4966;48.112;9.282;2024-02-28T14:20:46;14.13;;;6.47;;
9854;SDS011;4966;48.112;9.282;2024-02-28T14:23:12;13.30;;;5.85;;
9854;SDS011;4966;48.112;9.282;2024-02-28T14:25:38;14.60;;;6.43;;
9854;SDS011;4966;48.112;9.282;2024-02-28T14:28:03;13.05;;;5.97;;
9854;SDS011;4966;48.112;9.282;2024-02-28T14:30:29;12.07;;;6.25;;
9854;SDS011;4966;48.112;9.282;2024-02-28T14:32:55;15.95;;;6.55;;
9854;SDS011;4966;48.112;9.282;2024-02-28T14:35:20;12.68;;;6.10;;
9854;SDS011;4966;48.112;9.282;2024-02-28T14:37:47;13.80;;;6.80;;
9854;SDS011;4966;48.112;9.282;2024-02-28T14:40:13;12.98;;;6.22;;
9854;SDS011;4966;48.112;9.282;2024-02-28T14:42:38;11.98;;;6.05;;
9854;SDS011;4966;48.112;9.282;2024-02-28T14:45:06;14.98;;;6.30;;
9854;SDS011;4966;48.112;9.282;2024-02-28T14:47:39;14.68;;;6.70;;
9854;SDS011;4966;48.112;9.282;2024-02-28T14:50:06;14.48;;;6.45;;
9854;SDS011;4966;48.112;9.282;2024-02-28T14:52:35;15.85;;;6.85;;
9854;SDS011;4966;48.112;9.282;2024-02-28T14:55:02;15.55;;;7.20;;
9854;SDS011;4966;48.112;9.282;2024-02-28T14:57:29;14.50;;;6.43;;
9854;SDS011;4966;48.112;9.282;2024-02-28T14:59:56;19.23;;;6.60;;
9854;SDS011;4966;48.112;9.282;2024-02-28T15:02:24;14.70;;;7.50;;
9854;SDS011;4966;48.112;9.282;2024-02-28T15:04:50;14.38;;;6.07;;
9854;SDS011;4966;48.112;9.282;2024-02-28T15:07:15;17.42;;;7.28;;
9854;SDS011;4966;48.112;9.282;2024-02-28T15:09:41;12.68;;;6.63;;
9854;SDS011;4966;48.112;9.282;2024-02-28T15:12:07;15.77;;;6.53;;
9854;SDS011;4966;48.112;9.282;2024-02-28T15:14:46;13.77;;;6.55;;